Station HAXA2 - Haines Harbor, AK Image indicating link to RSS feed of recent meteorological observations for station HAXA2


Conditions at HAXA2 as of
(6:12 am AKDT)
1412 GMT on 05/24/2024:
     

Click on the graph icon in the table below to see a time series plot of the last five days of that observation.

5-day plot - Wind Direction Wind Direction (WDIR):SSE ( 160 deg true )
5-day plot - Wind Speed Wind Speed (WSPD): 4 kts
5-day plot - Wind Gust Wind Gust (GST): 7 kts
5-day plot - Air Temperature Air Temperature (ATMP): 46.8 °F
5-day plot - Wind Chill Wind Chill (CHILL): 44.6 °F
5-day plot - Wind Speed at 10 Meters Wind Speed at 10 meters (WSPD10M): 4 kts
5-day plot - Wind Speed at 20 Meters Wind Speed at 20 meters (WSPD20M): 6 kts
5-day plot -  Wind Speed, Wind Gust and Atmospheric Pressure Combined plot of Wind Speed, Gust, and Air Pressure
Previous observations
TIME
(AKDT)
5-day plot - Wind Direction
WDIR
 
5-day plot - Wind Speed
WSPD
kts
5-day plot - Wind Gust
GST
kts
5-day plot - Wave Height
WVHT
ft
5-day plot - Dominant Wave Period
DPD
sec
5-day plot - Average Wave Period
APD
sec
5-day plot - Mean Wave Direction
MWD
 
5-day plot - Atmospheric Pressure
PRES
in
5-day plot - Pressure Tendency
PTDY
in
5-day plot - Air Temperature
ATMP
°F
5-day plot - Water Temperature
WTMP
°F
5-day plot - Dew Point
DEWP
°F
5-day plot - Salinity
SAL
psu
5-day plot - Visibility
VIS
nmi
5-day plot - Tide (above MLLW)
TIDE
ft
2024-05-24 06:02 am SE 2 6------ 46.8-----
2024-05-24 05:52 amESE 2 5------ 46.8-----
2024-05-24 05:42 amSSE 3 7------ 46.8-----
2024-05-24 05:32 amSSE 3 6------ 46.8-----
2024-05-24 05:22 am SE 3 7------ 46.9-----
2024-05-24 05:12 amSSE 4 8------ 46.9-----
2024-05-24 05:02 am SE 4 8------ 47.1-----
2024-05-24 04:52 amESE 5 11------ 47.1-----
2024-05-24 04:32 am SE 4 8------ 47.5-----
2024-05-24 04:22 am S 4 10------ 47.3-----
2024-05-24 04:12 am SE 4 9------ 47.5-----
2024-05-24 04:02 amSSE 4 9------ 47.5-----
2024-05-24 03:52 amSSE 4 7------ 47.5-----
2024-05-24 03:42 amSSE 4 9------ 47.7-----
2024-05-24 03:32 amNNE 1 2------ 47.7-----
2024-05-24 03:22 amWNW 1 3------ 47.7-----
2024-05-24 03:12 amWNW 1 3------ 47.8-----
2024-05-24 03:02 am SW 1 3------ 47.8-----
2024-05-24 02:52 am SW 2 4------ 48.0-----
2024-05-24 02:42 amWNW 3 5------ 48.0-----
2024-05-24 02:32 am NW 2 5------ 48.2-----
2024-05-24 02:22 amSSE 3 7------ 48.4-----
2024-05-24 02:12 amSSE 3 7------ 48.6-----
2024-05-24 02:02 amWNW 2 3------ 48.6-----
2024-05-24 01:52 amNNE 2 4------ 48.6-----
2024-05-24 01:42 am E 4 9------ 48.7-----
2024-05-24 01:32 amNNE 2 4------ 48.7-----
2024-05-24 01:22 amSSE 4 9------ 48.7-----
2024-05-24 01:12 amSSE 5 12------ 48.4-----
2024-05-24 01:02 amESE 4 13------ 48.9-----
2024-05-24 12:52 am S 3 7------ 49.1-----
2024-05-24 12:42 am N 2 4------ 49.1-----
2024-05-24 12:32 am N 3 5------ 49.1-----
2024-05-24 12:22 am NW 1 4------ 49.5-----
2024-05-24 12:12 amWSW 3 8------ 49.3-----
2024-05-24 12:02 am W 2 5------ 49.1-----
2024-05-23 11:52 pmWNW 2 5------ 49.3-----
2024-05-23 11:42 pm N 3 6------ 49.5-----
2024-05-23 11:32 pm E 2 5------ 49.6-----
2024-05-23 11:22 pm SE 2 6------ 49.8-----
2024-05-23 11:12 pmSSW 2 5------ 49.6-----
2024-05-23 11:02 pmSSW 2 6------ 49.8-----
2024-05-23 10:52 pmENE 2 7------ 50.0-----
2024-05-23 10:42 pm NE 3 5------ 50.0-----
2024-05-23 10:32 pmSSE 3 8------ 50.4-----
2024-05-23 10:22 pmSSW 2 5------ 50.2-----
2024-05-23 10:12 pm E 1 3------ 50.4-----
2024-05-23 10:02 pmENE 2 5------ 50.2-----
2024-05-23 09:52 pmENE 3 6------ 50.4-----
2024-05-23 09:42 pm N 1 3------ 50.9-----
2024-05-23 09:32 pm N 2 3------ 50.9-----
2024-05-23 09:22 pm NW 1 3------ 51.1-----
2024-05-23 09:12 pm- 0 2------ 51.3-----
2024-05-23 09:02 pm E 1 3------ 51.4-----
2024-05-23 08:52 pm SE 1 2------ 51.3-----
2024-05-23 08:42 pm E 2 4------ 51.1-----
2024-05-23 08:32 pmNNE 2 4------ 51.4-----
2024-05-23 08:27 pm N 1 3------ 51.4-----
2024-05-23 08:22 pm N 1 3------ 51.4-----
2024-05-23 08:02 pmENE 1 4------ 50.9-----
2024-05-23 07:52 pm E 4 8------ 50.5-----
2024-05-23 07:42 pm E 5 8------ 50.9-----
2024-05-23 07:32 pmSSE 2 4------ 51.6-----
2024-05-23 07:22 pm S 4 8------ 51.6-----
2024-05-23 07:12 pmESE 4 8------ 51.3-----
2024-05-23 07:02 pm E 4 8------ 50.7-----
2024-05-23 06:52 pm E 6 11------ 50.5-----
2024-05-23 06:42 pm E 6 10------ 50.4-----
2024-05-23 06:32 pm E 6 11------ 50.7-----
2024-05-23 06:22 pmENE 4 7------ 50.9-----
2024-05-23 06:12 pm E 4 8------ 50.7-----
2024-05-23 06:02 pm E 4 11------ 50.7-----
2024-05-23 05:52 pm E 6 11------ 50.7-----
2024-05-23 05:42 pm E 6 11------ 50.9-----
2024-05-23 05:32 pm E 5 11------ 51.3-----
2024-05-23 05:22 pmESE 5 9------ 51.4-----
2024-05-23 05:12 pm SE 5 10------ 51.3-----
2024-05-23 05:02 pm E 5 9------ 51.1-----
2024-05-23 04:52 pm E 4 10------ 50.9-----
2024-05-23 04:42 pm E 5 9------ 50.9-----
2024-05-23 04:32 pm E 5 9------ 50.5-----
2024-05-23 04:22 pm E 5 10------ 50.4-----
2024-05-23 04:12 pm E 5 8------ 50.4-----
2024-05-23 03:52 pm E 5 10------ 50.4-----
2024-05-23 03:42 pm E 5 10------ 50.2-----
2024-05-23 03:32 pmENE 5 10------ 50.0-----
2024-05-23 03:22 pm E 5 8------ 50.0-----
2024-05-23 03:12 pm E 4 8------ 50.2-----
2024-05-23 03:02 pm E 4 8------ 50.0-----
2024-05-23 02:52 pmENE 5 8------ 49.6-----
2024-05-23 02:42 pmENE 5 10------ 49.8-----
2024-05-23 02:32 pmENE 5 9------ 49.8-----
2024-05-23 02:22 pmENE 5 9------ 49.5-----
2024-05-23 02:12 pmENE 5 9------ 49.1-----
2024-05-23 02:02 pm NE 5 9------ 48.7-----
2024-05-23 01:52 pm NE 5 9------ 48.4-----
2024-05-23 01:42 pmENE 5 9------ 48.4-----
2024-05-23 01:32 pmENE 5 8------ 48.4-----
2024-05-23 01:22 pmENE 5 7------ 48.6-----
2024-05-23 01:12 pm NE 4 7------ 48.7-----
2024-05-23 01:02 pmNNE 3 6------ 48.7-----
2024-05-23 12:52 pmNNE 4 6------ 48.7-----
2024-05-23 12:42 pm NE 5 7------ 48.6-----
2024-05-23 12:32 pmENE 4 6------ 48.6-----
2024-05-23 12:22 pmENE 4 6------ 48.4-----
2024-05-23 12:12 pmENE 3 5------ 48.6-----
2024-05-23 12:02 pmESE 3 4------ 48.7-----
2024-05-23 11:52 am E 3 5------ 48.6-----
2024-05-23 11:42 am E 3 6------ 48.2-----
2024-05-23 11:32 am E 3 5------ 48.0-----
2024-05-23 11:22 am E 3 6------ 48.0-----
2024-05-23 11:12 amENE 4 6------ 47.8-----
2024-05-23 11:02 amENE 4 6------ 47.8-----
2024-05-23 10:52 am E 4 6------ 47.5-----
2024-05-23 10:42 am E 5 7------ 47.3-----
2024-05-23 10:32 am E 5 7------ 47.1-----
2024-05-23 10:22 am E 4 7------ 46.9-----
2024-05-23 10:12 amENE 4 6------ 46.8-----
2024-05-23 10:02 amENE 4 6------ 46.9-----
2024-05-23 09:52 am E 3 4------ 47.3-----
2024-05-23 09:42 am E 3 4------ 47.3-----
2024-05-23 09:32 am E 2 3------ 47.1-----
2024-05-23 09:22 am E 2 3------ 47.1-----
2024-05-23 09:12 am E 2 3------ 47.5-----
2024-05-23 09:02 am- 0 2------ 47.7-----
2024-05-23 08:52 am- 0 2------ 47.3-----
2024-05-23 08:42 am SW 1 3------ 47.1-----
2024-05-23 08:32 amSSW 1 3------ 46.9-----
2024-05-23 08:22 am SW 1 2------ 46.9-----
2024-05-23 08:13 am SW 1 3------ 46.8-----
2024-05-23 08:02 am SW 1 2------ 46.8-----
2024-05-23 07:52 amSSW 1 2------ 46.4-----
2024-05-23 07:42 am SW 1 2------ 46.4-----
2024-05-23 07:32 am SW 1 2------ 46.2-----
2024-05-23 07:22 am SW 1 2------ 46.0-----
2024-05-23 07:12 am SW 1 3------ 45.9-----
2024-05-23 07:02 amWSW 1 2------ 45.7-----
2024-05-23 06:52 am SW 2 3------ 45.7-----
2024-05-23 06:42 am SW 2 3------ 45.7-----
2024-05-23 06:32 am SW 1 3------ 46.0-----
2024-05-23 06:22 amWSW 1 3------ 46.2-----
2024-05-23 06:12 amWSW 1 3------ 46.4-----
2024-05-23 06:02 amWSW 1 3------ 46.6-----
2024-05-23 05:52 amWSW 1 2------ 46.8-----